sensor_id;sensor_type;location;lat;lon;timestamp;P1;durP1;ratioP1;P2;durP2;ratioP2
60100;SDS011;45978;53.646;55.930;2022-07-29T00:00:37;30.63;;;23.13;;
60100;SDS011;45978;53.646;55.930;2022-07-29T00:01:39;27.08;;;22.08;;
60100;SDS011;45978;53.646;55.930;2022-07-29T00:02:40;26.42;;;22.42;;
60100;SDS011;45978;53.646;55.930;2022-07-29T00:03:42;30.35;;;22.75;;
60100;SDS011;45978;53.646;55.930;2022-07-29T00:04:44;36.60;;;22.83;;
60100;SDS011;45978;53.646;55.930;2022-07-29T00:05:45;32.58;;;23.45;;
60100;SDS011;45978;53.646;55.930;2022-07-29T00:06:47;30.95;;;22.50;;
60100;SDS011;45978;53.646;55.930;2022-07-29T00:07:54;28.52;;;22.83;;
60100;SDS011;45978;53.646;55.930;2022-07-29T00:08:56;30.95;;;23.38;;
60100;SDS011;45978;53.646;55.930;2022-07-29T00:09:57;29.60;;;22.63;;
60100;SDS011;45978;53.646;55.930;2022-07-29T00:10:59;28.80;;;23.23;;
60100;SDS011;45978;53.646;55.930;2022-07-29T00:12:00;38.85;;;24.23;;
60100;SDS011;45978;53.646;55.930;2022-07-29T00:13:02;34.83;;;23.70;;
60100;SDS011;45978;53.646;55.930;2022-07-29T00:14:03;31.48;;;24.55;;
60100;SDS011;45978;53.646;55.930;2022-07-29T00:15:05;31.10;;;24.67;;
60100;SDS011;45978;53.646;55.930;2022-07-29T00:16:07;32.65;;;24.05;;
60100;SDS011;45978;53.646;55.930;2022-07-29T00:17:09;26.10;;;21.98;;
60100;SDS011;45978;53.646;55.930;2022-07-29T00:18:10;28.17;;;22.27;;
60100;SDS011;45978;53.646;55.930;2022-07-29T00:19:14;39.20;;;21.98;;
60100;SDS011;45978;53.646;55.930;2022-07-29T00:20:17;26.13;;;22.00;;
60100;SDS011;45978;53.646;55.930;2022-07-29T00:21:18;28.23;;;20.80;;
60100;SDS011;45978;53.646;55.930;2022-07-29T00:22:21;27.75;;;20.27;;
60100;SDS011;45978;53.646;55.930;2022-07-29T00:23:22;24.83;;;19.98;;
60100;SDS011;45978;53.646;55.930;2022-07-29T00:24:23;27.63;;;19.58;;
60100;SDS011;45978;53.646;55.930;2022-07-29T00:25:25;28.67;;;19.63;;
60100;SDS011;45978;53.646;55.930;2022-07-29T00:26:26;23.65;;;19.23;;
60100;SDS011;45978;53.646;55.930;2022-07-29T00:27:34;28.00;;;20.30;;
60100;SDS011;45978;53.646;55.930;2022-07-29T00:28:38;23.58;;;19.05;;
60100;SDS011;45978;53.646;55.930;2022-07-29T00:29:42;32.55;;;20.23;;
60100;SDS011;45978;53.646;55.930;2022-07-29T00:30:43;29.30;;;20.33;;
60100;SDS011;45978;53.646;55.930;2022-07-29T00:31:46;26.52;;;18.75;;
60100;SDS011;45978;53.646;55.930;2022-07-29T00:32:48;25.30;;;19.05;;
60100;SDS011;45978;53.646;55.930;2022-07-29T00:33:49;27.65;;;18.77;;
60100;SDS011;45978;53.646;55.930;2022-07-29T00:34:51;28.35;;;19.77;;
60100;SDS011;45978;53.646;55.930;2022-07-29T00:36:10;27.10;;;19.73;;
60100;SDS011;45978;53.646;55.930;2022-07-29T00:37:12;24.45;;;19.02;;
60100;SDS011;45978;53.646;55.930;2022-07-29T00:38:15;25.17;;;19.85;;
60100;SDS011;45978;53.646;55.930;2022-07-29T00:39:18;25.75;;;19.58;;
60100;SDS011;45978;53.646;55.930;2022-07-29T00:40:19;24.85;;;20.23;;
60100;SDS011;45978;53.646;55.930;2022-07-29T00:41:21;30.25;;;20.73;;
60100;SDS011;45978;53.646;55.930;2022-07-29T00:42:22;32.50;;;21.27;;
60100;SDS011;45978;53.646;55.930;2022-07-29T00:43:23;27.23;;;20.45;;
60100;SDS011;45978;53.646;55.930;2022-07-29T00:44:24;34.83;;;21.83;;
60100;SDS011;45978;53.646;55.930;2022-07-29T00:45:26;32.20;;;21.08;;
60100;SDS011;45978;53.646;55.930;2022-07-29T00:46:27;27.75;;;21.65;;
60100;SDS011;45978;53.646;55.930;2022-07-29T00:47:30;29.52;;;21.88;;
60100;SDS011;45978;53.646;55.930;2022-07-29T00:48:31;29.50;;;22.55;;
60100;SDS011;45978;53.646;55.930;2022-07-29T00:49:33;29.20;;;22.52;;
60100;SDS011;45978;53.646;55.930;2022-07-29T00:50:35;36.65;;;22.77;;
60100;SDS011;45978;53.646;55.930;2022-07-29T00:51:37;27.27;;;22.45;;
60100;SDS011;45978;53.646;55.930;2022-07-29T00:52:40;29.20;;;22.77;;
60100;SDS011;45978;53.646;55.930;2022-07-29T00:53:42;30.00;;;23.33;;
60100;SDS011;45978;53.646;55.930;2022-07-29T00:54:44;28.77;;;22.00;;
60100;SDS011;45978;53.646;55.930;2022-07-29T00:55:46;30.73;;;23.25;;
60100;SDS011;45978;53.646;55.930;2022-07-29T00:56:47;29.80;;;23.10;;
60100;SDS011;45978;53.646;55.930;2022-07-29T00:57:49;32.15;;;23.67;;
60100;SDS011;45978;53.646;55.930;2022-07-29T00:58:51;28.83;;;22.10;;
60100;SDS011;45978;53.646;55.930;2022-07-29T00:59:52;36.03;;;26.05;;
60100;SDS011;45978;53.646;55.930;2022-07-29T01:00:54;37.67;;;26.45;;
60100;SDS011;45978;53.646;55.930;2022-07-29T01:01:56;42.00;;;27.13;;
60100;SDS011;45978;53.646;55.930;2022-07-29T01:02:57;35.72;;;26.73;;
60100;SDS011;45978;53.646;55.930;2022-07-29T01:03:59;35.03;;;25.60;;
60100;SDS011;45978;53.646;55.930;2022-07-29T01:05:01;51.78;;;27.63;;
60100;SDS011;45978;53.646;55.930;2022-07-29T01:06:04;44.88;;;27.17;;
60100;SDS011;45978;53.646;55.930;2022-07-29T01:07:08;37.47;;;27.30;;
60100;SDS011;45978;53.646;55.930;2022-07-29T01:08:15;41.05;;;27.40;;
60100;SDS011;45978;53.646;55.930;2022-07-29T01:09:19;36.97;;;28.48;;
60100;SDS011;45978;53.646;55.930;2022-07-29T01:10:21;40.90;;;28.20;;
60100;SDS011;45978;53.646;55.930;2022-07-29T01:11:25;37.50;;;27.17;;
60100;SDS011;45978;53.646;55.930;2022-07-29T01:12:27;36.22;;;29.15;;
60100;SDS011;45978;53.646;55.930;2022-07-29T01:13:33;40.92;;;29.15;;
60100;SDS011;45978;53.646;55.930;2022-07-29T01:14:36;50.40;;;31.63;;
60100;SDS011;45978;53.646;55.930;2022-07-29T01:15:42;40.72;;;29.08;;
60100;SDS011;45978;53.646;55.930;2022-07-29T01:16:51;37.13;;;29.95;;
60100;SDS011;45978;53.646;55.930;2022-07-29T01:18:18;44.00;;;31.35;;
60100;SDS011;45978;53.646;55.930;2022-07-29T01:22:37;45.17;;;31.30;;
60100;SDS011;45978;53.646;55.930;2022-07-29T01:25:25;43.20;;;28.00;;
60100;SDS011;45978;53.646;55.930;2022-07-29T01:26:40;36.45;;;24.83;;
60100;SDS011;45978;53.646;55.930;2022-07-29T01:29:06;30.83;;;22.55;;
60100;SDS011;45978;53.646;55.930;2022-07-29T01:30:13;32.15;;;23.20;;
60100;SDS011;45978;53.646;55.930;2022-07-29T01:31:16;32.30;;;23.25;;
60100;SDS011;45978;53.646;55.930;2022-07-29T01:32:24;25.65;;;20.90;;
60100;SDS011;45978;53.646;55.930;2022-07-29T01:33:29;28.33;;;20.20;;
60100;SDS011;45978;53.646;55.930;2022-07-29T01:35:00;34.97;;;19.77;;
60100;SDS011;45978;53.646;55.930;2022-07-29T01:37:05;25.27;;;18.77;;
60100;SDS011;45978;53.646;55.930;2022-07-29T01:37:55;29.42;;;17.95;;
60100;SDS011;45978;53.646;55.930;2022-07-29T01:39:14;32.60;;;19.27;;
60100;SDS011;45978;53.646;55.930;2022-07-29T01:40:33;32.25;;;18.02;;
60100;SDS011;45978;53.646;55.930;2022-07-29T01:41:56;29.40;;;18.45;;
60100;SDS011;45978;53.646;55.930;2022-07-29T01:43:06;29.00;;;17.58;;
60100;SDS011;45978;53.646;55.930;2022-07-29T01:44:15;26.30;;;17.98;;
60100;SDS011;45978;53.646;55.930;2022-07-29T01:46:42;24.17;;;17.27;;
60100;SDS011;45978;53.646;55.930;2022-07-29T01:49:24;25.75;;;15.77;;
60100;SDS011;45978;53.646;55.930;2022-07-29T01:50:35;21.25;;;15.23;;
60100;SDS011;45978;53.646;55.930;2022-07-29T01:53:01;23.15;;;15.57;;
60100;SDS011;45978;53.646;55.930;2022-07-29T01:54:19;19.63;;;14.60;;
60100;SDS011;45978;53.646;55.930;2022-07-29T01:55:34;22.95;;;14.68;;
60100;SDS011;45978;53.646;55.930;2022-07-29T01:56:38;22.83;;;15.50;;
60100;SDS011;45978;53.646;55.930;2022-07-29T01:57:40;26.48;;;16.67;;
60100;SDS011;45978;53.646;55.930;2022-07-29T01:58:44;21.20;;;14.75;;
60100;SDS011;45978;53.646;55.930;2022-07-29T01:59:48;21.30;;;15.52;;
60100;SDS011;45978;53.646;55.930;2022-07-29T02:00:50;23.95;;;14.90;;
60100;SDS011;45978;53.646;55.930;2022-07-29T02:01:55;21.92;;;14.73;;
60100;SDS011;45978;53.646;55.930;2022-07-29T02:02:59;27.25;;;15.75;;
60100;SDS011;45978;53.646;55.930;2022-07-29T02:04:05;20.95;;;15.82;;
60100;SDS011;45978;53.646;55.930;2022-07-29T02:05:09;20.50;;;15.05;;
60100;SDS011;45978;53.646;55.930;2022-07-29T02:06:16;23.90;;;15.32;;
60100;SDS011;45978;53.646;55.930;2022-07-29T02:07:20;26.17;;;18.55;;
60100;SDS011;45978;53.646;55.930;2022-07-29T02:08:24;24.25;;;15.18;;
60100;SDS011;45978;53.646;55.930;2022-07-29T02:09:26;23.40;;;15.02;;
60100;SDS011;45978;53.646;55.930;2022-07-29T02:10:29;20.00;;;14.52;;
60100;SDS011;45978;53.646;55.930;2022-07-29T02:11:33;23.23;;;15.50;;
60100;SDS011;45978;53.646;55.930;2022-07-29T02:12:36;24.15;;;14.88;;
60100;SDS011;45978;53.646;55.930;2022-07-29T02:13:40;25.02;;;15.23;;
60100;SDS011;45978;53.646;55.930;2022-07-29T02:14:50;24.05;;;14.73;;
60100;SDS011;45978;53.646;55.930;2022-07-29T02:15:55;19.80;;;14.65;;
60100;SDS011;45978;53.646;55.930;2022-07-29T02:16:58;19.55;;;14.00;;
60100;SDS011;45978;53.646;55.930;2022-07-29T02:18:05;21.08;;;13.68;;
60100;SDS011;45978;53.646;55.930;2022-07-29T02:19:10;17.60;;;14.10;;
60100;SDS011;45978;53.646;55.930;2022-07-29T02:20:14;20.25;;;13.68;;
60100;SDS011;45978;53.646;55.930;2022-07-29T02:21:19;35.67;;;13.77;;
60100;SDS011;45978;53.646;55.930;2022-07-29T02:22:25;26.63;;;14.88;;
60100;SDS011;45978;53.646;55.930;2022-07-29T02:23:30;18.42;;;13.93;;
60100;SDS011;45978;53.646;55.930;2022-07-29T02:24:33;18.15;;;14.20;;
60100;SDS011;45978;53.646;55.930;2022-07-29T02:25:38;16.67;;;13.45;;
60100;SDS011;45978;53.646;55.930;2022-07-29T02:26:41;18.45;;;13.65;;
60100;SDS011;45978;53.646;55.930;2022-07-29T02:27:45;22.52;;;13.02;;
60100;SDS011;45978;53.646;55.930;2022-07-29T02:28:48;17.50;;;12.50;;
60100;SDS011;45978;53.646;55.930;2022-07-29T02:29:52;19.25;;;13.45;;
60100;SDS011;45978;53.646;55.930;2022-07-29T02:30:57;24.75;;;13.57;;
60100;SDS011;45978;53.646;55.930;2022-07-29T02:32:00;21.65;;;13.73;;
60100;SDS011;45978;53.646;55.930;2022-07-29T02:33:03;18.27;;;12.27;;
60100;SDS011;45978;53.646;55.930;2022-07-29T02:34:06;17.50;;;13.32;;
60100;SDS011;45978;53.646;55.930;2022-07-29T02:35:12;23.55;;;13.32;;
60100;SDS011;45978;53.646;55.930;2022-07-29T02:36:15;21.10;;;13.68;;
60100;SDS011;45978;53.646;55.930;2022-07-29T02:37:17;21.52;;;13.70;;
60100;SDS011;45978;53.646;55.930;2022-07-29T02:38:19;28.35;;;14.20;;
60100;SDS011;45978;53.646;55.930;2022-07-29T02:39:41;24.13;;;13.57;;
60100;SDS011;45978;53.646;55.930;2022-07-29T02:40:45;20.48;;;13.98;;
60100;SDS011;45978;53.646;55.930;2022-07-29T02:41:52;25.92;;;14.98;;
60100;SDS011;45978;53.646;55.930;2022-07-29T02:42:58;27.48;;;14.48;;
60100;SDS011;45978;53.646;55.930;2022-07-29T02:44:11;25.50;;;14.90;;
60100;SDS011;45978;53.646;55.930;2022-07-29T02:45:14;21.75;;;13.82;;
60100;SDS011;45978;53.646;55.930;2022-07-29T02:46:20;20.95;;;13.95;;
60100;SDS011;45978;53.646;55.930;2022-07-29T02:47:41;26.40;;;14.73;;
60100;SDS011;45978;53.646;55.930;2022-07-29T02:48:48;21.63;;;14.68;;
60100;SDS011;45978;53.646;55.930;2022-07-29T02:50:15;18.00;;;14.48;;
60100;SDS011;45978;53.646;55.930;2022-07-29T02:51:45;25.73;;;14.18;;
60100;SDS011;45978;53.646;55.930;2022-07-29T02:53:02;21.60;;;13.90;;
60100;SDS011;45978;53.646;55.930;2022-07-29T02:54:17;18.77;;;14.35;;
60100;SDS011;45978;53.646;55.930;2022-07-29T02:55:26;21.30;;;14.70;;
60100;SDS011;45978;53.646;55.930;2022-07-29T02:56:32;30.02;;;15.85;;
60100;SDS011;45978;53.646;55.930;2022-07-29T02:59:07;23.08;;;14.23;;
60100;SDS011;45978;53.646;55.930;2022-07-29T03:00:12;20.48;;;14.32;;
60100;SDS011;45978;53.646;55.930;2022-07-29T03:01:20;21.25;;;15.65;;
60100;SDS011;45978;53.646;55.930;2022-07-29T03:02:22;19.60;;;14.40;;
60100;SDS011;45978;53.646;55.930;2022-07-29T03:03:28;21.00;;;14.77;;
60100;SDS011;45978;53.646;55.930;2022-07-29T03:04:33;25.27;;;15.05;;
60100;SDS011;45978;53.646;55.930;2022-07-29T03:05:36;21.20;;;14.30;;
60100;SDS011;45978;53.646;55.930;2022-07-29T03:06:38;27.63;;;15.23;;
60100;SDS011;45978;53.646;55.930;2022-07-29T03:07:41;23.33;;;15.32;;
60100;SDS011;45978;53.646;55.930;2022-07-29T03:08:46;22.15;;;14.98;;
60100;SDS011;45978;53.646;55.930;2022-07-29T03:09:49;21.10;;;15.05;;
60100;SDS011;45978;53.646;55.930;2022-07-29T03:10:51;17.63;;;14.70;;
60100;SDS011;45978;53.646;55.930;2022-07-29T03:11:55;22.25;;;15.70;;
60100;SDS011;45978;53.646;55.930;2022-07-29T03:12:58;23.63;;;14.70;;
60100;SDS011;45978;53.646;55.930;2022-07-29T03:14:00;28.05;;;15.23;;
60100;SDS011;45978;53.646;55.930;2022-07-29T03:15:02;20.95;;;15.60;;
60100;SDS011;45978;53.646;55.930;2022-07-29T03:16:04;22.05;;;15.38;;
60100;SDS011;45978;53.646;55.930;2022-07-29T03:17:06;22.77;;;16.05;;
60100;SDS011;45978;53.646;55.930;2022-07-29T03:18:10;33.45;;;15.00;;
60100;SDS011;45978;53.646;55.930;2022-07-29T03:19:12;21.45;;;14.90;;
60100;SDS011;45978;53.646;55.930;2022-07-29T03:20:14;20.02;;;14.80;;
60100;SDS011;45978;53.646;55.930;2022-07-29T03:21:18;23.40;;;15.70;;
60100;SDS011;45978;53.646;55.930;2022-07-29T03:22:19;22.60;;;15.38;;
60100;SDS011;45978;53.646;55.930;2022-07-29T03:23:22;27.50;;;14.75;;
60100;SDS011;45978;53.646;55.930;2022-07-29T03:24:25;21.95;;;14.88;;
60100;SDS011;45978;53.646;55.930;2022-07-29T03:25:27;20.73;;;14.90;;
60100;SDS011;45978;53.646;55.930;2022-07-29T03:26:29;35.35;;;16.02;;
60100;SDS011;45978;53.646;55.930;2022-07-29T03:27:30;25.08;;;15.57;;
60100;SDS011;45978;53.646;55.930;2022-07-29T03:28:32;27.05;;;16.23;;
60100;SDS011;45978;53.646;55.930;2022-07-29T03:29:33;30.35;;;16.05;;
60100;SDS011;45978;53.646;55.930;2022-07-29T03:30:35;28.98;;;14.88;;
60100;SDS011;45978;53.646;55.930;2022-07-29T03:31:38;22.90;;;15.35;;
60100;SDS011;45978;53.646;55.930;2022-07-29T03:32:41;29.05;;;14.98;;
60100;SDS011;45978;53.646;55.930;2022-07-29T03:33:43;23.10;;;15.60;;
60100;SDS011;45978;53.646;55.930;2022-07-29T03:34:46;23.13;;;15.25;;
60100;SDS011;45978;53.646;55.930;2022-07-29T03:35:47;24.33;;;14.85;;
60100;SDS011;45978;53.646;55.930;2022-07-29T03:36:50;23.65;;;15.20;;
60100;SDS011;45978;53.646;55.930;2022-07-29T03:37:51;33.88;;;15.52;;
60100;SDS011;45978;53.646;55.930;2022-07-29T03:38:52;25.88;;;16.65;;
60100;SDS011;45978;53.646;55.930;2022-07-29T03:39:55;33.05;;;18.40;;
60100;SDS011;45978;53.646;55.930;2022-07-29T03:41:00;25.40;;;16.67;;
60100;SDS011;45978;53.646;55.930;2022-07-29T03:42:06;28.33;;;18.73;;
60100;SDS011;45978;53.646;55.930;2022-07-29T03:43:11;29.55;;;19.70;;
60100;SDS011;45978;53.646;55.930;2022-07-29T03:44:16;32.40;;;19.65;;
60100;SDS011;45978;53.646;55.930;2022-07-29T03:45:18;29.05;;;19.77;;
60100;SDS011;45978;53.646;55.930;2022-07-29T03:46:22;33.42;;;20.52;;
60100;SDS011;45978;53.646;55.930;2022-07-29T03:47:27;30.63;;;20.45;;
60100;SDS011;45978;53.646;55.930;2022-07-29T03:48:30;34.92;;;21.30;;
60100;SDS011;45978;53.646;55.930;2022-07-29T03:49:36;33.33;;;22.23;;
60100;SDS011;45978;53.646;55.930;2022-07-29T03:50:40;34.85;;;21.88;;
60100;SDS011;45978;53.646;55.930;2022-07-29T03:51:41;40.20;;;22.52;;
60100;SDS011;45978;53.646;55.930;2022-07-29T03:52:43;34.97;;;22.90;;
60100;SDS011;45978;53.646;55.930;2022-07-29T03:53:45;39.65;;;22.45;;
60100;SDS011;45978;53.646;55.930;2022-07-29T03:54:46;44.65;;;21.50;;
60100;SDS011;45978;53.646;55.930;2022-07-29T03:55:50;28.10;;;20.65;;
60100;SDS011;45978;53.646;55.930;2022-07-29T03:56:55;31.67;;;21.23;;
60100;SDS011;45978;53.646;55.930;2022-07-29T03:58:04;34.60;;;22.33;;
60100;SDS011;45978;53.646;55.930;2022-07-29T03:59:08;35.53;;;20.67;;
60100;SDS011;45978;53.646;55.930;2022-07-29T04:00:12;34.38;;;21.30;;
60100;SDS011;45978;53.646;55.930;2022-07-29T04:01:14;32.45;;;20.48;;
60100;SDS011;45978;53.646;55.930;2022-07-29T04:02:18;28.80;;;19.55;;
60100;SDS011;45978;53.646;55.930;2022-07-29T04:03:20;27.70;;;19.95;;
60100;SDS011;45978;53.646;55.930;2022-07-29T04:04:22;29.60;;;18.83;;
60100;SDS011;45978;53.646;55.930;2022-07-29T04:05:23;28.55;;;17.90;;
60100;SDS011;45978;53.646;55.930;2022-07-29T04:06:24;32.80;;;17.30;;
60100;SDS011;45978;53.646;55.930;2022-07-29T04:07:26;27.55;;;16.65;;
60100;SDS011;45978;53.646;55.930;2022-07-29T04:08:27;26.60;;;15.90;;
60100;SDS011;45978;53.646;55.930;2022-07-29T04:09:32;24.52;;;14.63;;
60100;SDS011;45978;53.646;55.930;2022-07-29T04:10:35;20.38;;;14.43;;
60100;SDS011;45978;53.646;55.930;2022-07-29T04:11:39;23.10;;;13.63;;
60100;SDS011;45978;53.646;55.930;2022-07-29T04:12:43;20.05;;;13.65;;
60100;SDS011;45978;53.646;55.930;2022-07-29T04:13:47;26.27;;;13.73;;
60100;SDS011;45978;53.646;55.930;2022-07-29T04:14:48;26.17;;;13.15;;
60100;SDS011;45978;53.646;55.930;2022-07-29T04:15:53;16.30;;;12.70;;
60100;SDS011;45978;53.646;55.930;2022-07-29T04:16:54;21.38;;;13.32;;
60100;SDS011;45978;53.646;55.930;2022-07-29T04:17:58;22.48;;;12.07;;
60100;SDS011;45978;53.646;55.930;2022-07-29T04:19:00;24.88;;;12.55;;
60100;SDS011;45978;53.646;55.930;2022-07-29T04:20:02;22.02;;;12.75;;
60100;SDS011;45978;53.646;55.930;2022-07-29T04:21:04;19.67;;;11.88;;
60100;SDS011;45978;53.646;55.930;2022-07-29T04:22:06;25.80;;;12.88;;
60100;SDS011;45978;53.646;55.930;2022-07-29T04:23:11;16.98;;;12.13;;
60100;SDS011;45978;53.646;55.930;2022-07-29T04:24:13;18.48;;;12.55;;
60100;SDS011;45978;53.646;55.930;2022-07-29T04:25:17;23.98;;;12.82;;
60100;SDS011;45978;53.646;55.930;2022-07-29T04:26:19;23.90;;;12.90;;
60100;SDS011;45978;53.646;55.930;2022-07-29T04:27:21;29.08;;;12.90;;
60100;SDS011;45978;53.646;55.930;2022-07-29T04:28:22;18.15;;;11.85;;
60100;SDS011;45978;53.646;55.930;2022-07-29T04:29:23;25.73;;;12.98;;
60100;SDS011;45978;53.646;55.930;2022-07-29T04:30:25;29.27;;;12.40;;
60100;SDS011;45978;53.646;55.930;2022-07-29T04:31:26;18.15;;;11.85;;
60100;SDS011;45978;53.646;55.930;2022-07-29T04:32:29;19.58;;;13.00;;
60100;SDS011;45978;53.646;55.930;2022-07-29T04:33:30;25.17;;;13.98;;
60100;SDS011;45978;53.646;55.930;2022-07-29T04:34:31;22.65;;;13.15;;
60100;SDS011;45978;53.646;55.930;2022-07-29T04:35:34;19.77;;;12.65;;
60100;SDS011;45978;53.646;55.930;2022-07-29T04:36:37;21.23;;;12.73;;
60100;SDS011;45978;53.646;55.930;2022-07-29T04:37:39;17.60;;;12.48;;
60100;SDS011;45978;53.646;55.930;2022-07-29T04:38:40;19.45;;;12.15;;
60100;SDS011;45978;53.646;55.930;2022-07-29T04:39:41;19.15;;;12.40;;
60100;SDS011;45978;53.646;55.930;2022-07-29T04:40:43;21.48;;;13.32;;
60100;SDS011;45978;53.646;55.930;2022-07-29T04:41:44;16.20;;;12.30;;
60100;SDS011;45978;53.646;55.930;2022-07-29T04:42:45;19.60;;;12.95;;
60100;SDS011;45978;53.646;55.930;2022-07-29T04:43:47;21.08;;;12.73;;
60100;SDS011;45978;53.646;55.930;2022-07-29T04:44:48;34.55;;;12.20;;
60100;SDS011;45978;53.646;55.930;2022-07-29T04:45:49;21.35;;;12.60;;
60100;SDS011;45978;53.646;55.930;2022-07-29T04:46:52;21.55;;;12.85;;
60100;SDS011;45978;53.646;55.930;2022-07-29T04:48:00;39.65;;;13.68;;
60100;SDS011;45978;53.646;55.930;2022-07-29T04:49:02;28.17;;;14.52;;
60100;SDS011;45978;53.646;55.930;2022-07-29T04:50:04;26.98;;;12.52;;
60100;SDS011;45978;53.646;55.930;2022-07-29T04:51:07;22.35;;;12.98;;
60100;SDS011;45978;53.646;55.930;2022-07-29T04:52:09;25.75;;;12.88;;
60100;SDS011;45978;53.646;55.930;2022-07-29T04:53:10;22.23;;;12.80;;
60100;SDS011;45978;53.646;55.930;2022-07-29T04:54:11;18.02;;;12.68;;
60100;SDS011;45978;53.646;55.930;2022-07-29T04:55:14;20.63;;;12.18;;
60100;SDS011;45978;53.646;55.930;2022-07-29T04:56:16;25.08;;;12.77;;
60100;SDS011;45978;53.646;55.930;2022-07-29T04:57:17;19.42;;;13.60;;
60100;SDS011;45978;53.646;55.930;2022-07-29T04:58:18;21.52;;;14.00;;
60100;SDS011;45978;53.646;55.930;2022-07-29T04:59:23;20.55;;;12.77;;
60100;SDS011;45978;53.646;55.930;2022-07-29T05:00:29;31.85;;;13.23;;
60100;SDS011;45978;53.646;55.930;2022-07-29T05:01:31;21.15;;;12.95;;
60100;SDS011;45978;53.646;55.930;2022-07-29T05:02:35;32.28;;;13.18;;
60100;SDS011;45978;53.646;55.930;2022-07-29T05:03:36;19.88;;;13.18;;
60100;SDS011;45978;53.646;55.930;2022-07-29T05:04:37;28.48;;;13.98;;
60100;SDS011;45978;53.646;55.930;2022-07-29T05:05:39;24.23;;;12.50;;
60100;SDS011;45978;53.646;55.930;2022-07-29T05:06:41;22.85;;;13.35;;
60100;SDS011;45978;53.646;55.930;2022-07-29T05:07:42;26.95;;;13.75;;
60100;SDS011;45978;53.646;55.930;2022-07-29T05:08:43;25.98;;;13.68;;
60100;SDS011;45978;53.646;55.930;2022-07-29T05:09:45;17.65;;;12.73;;
60100;SDS011;45978;53.646;55.930;2022-07-29T05:10:46;29.00;;;13.20;;
60100;SDS011;45978;53.646;55.930;2022-07-29T05:11:48;32.63;;;13.60;;
60100;SDS011;45978;53.646;55.930;2022-07-29T05:12:49;24.05;;;12.90;;
60100;SDS011;45978;53.646;55.930;2022-07-29T05:13:50;31.65;;;13.18;;
60100;SDS011;45978;53.646;55.930;2022-07-29T05:14:52;20.95;;;13.60;;
60100;SDS011;45978;53.646;55.930;2022-07-29T05:15:53;26.92;;;13.40;;
60100;SDS011;45978;53.646;55.930;2022-07-29T05:16:54;27.05;;;14.05;;
60100;SDS011;45978;53.646;55.930;2022-07-29T05:17:57;20.98;;;12.30;;
60100;SDS011;45978;53.646;55.930;2022-07-29T05:18:59;25.23;;;12.95;;
60100;SDS011;45978;53.646;55.930;2022-07-29T05:20:00;26.50;;;11.93;;
60100;SDS011;45978;53.646;55.930;2022-07-29T05:21:01;17.70;;;12.02;;
60100;SDS011;45978;53.646;55.930;2022-07-29T05:22:03;21.13;;;12.05;;
60100;SDS011;45978;53.646;55.930;2022-07-29T05:23:04;24.67;;;12.25;;
60100;SDS011;45978;53.646;55.930;2022-07-29T05:24:06;29.58;;;12.13;;
60100;SDS011;45978;53.646;55.930;2022-07-29T05:25:07;22.77;;;11.85;;
60100;SDS011;45978;53.646;55.930;2022-07-29T05:26:11;20.35;;;12.68;;
60100;SDS011;45978;53.646;55.930;2022-07-29T05:27:13;19.73;;;11.80;;
60100;SDS011;45978;53.646;55.930;2022-07-29T05:28:14;18.35;;;11.98;;
60100;SDS011;45978;53.646;55.930;2022-07-29T05:29:15;25.73;;;12.50;;
60100;SDS011;45978;53.646;55.930;2022-07-29T05:30:17;16.77;;;11.75;;
60100;SDS011;45978;53.646;55.930;2022-07-29T05:31:18;23.80;;;12.70;;
60100;SDS011;45978;53.646;55.930;2022-07-29T05:32:21;22.67;;;12.40;;
60100;SDS011;45978;53.646;55.930;2022-07-29T05:33:24;22.52;;;11.85;;
60100;SDS011;45978;53.646;55.930;2022-07-29T05:34:27;17.67;;;12.70;;
60100;SDS011;45978;53.646;55.930;2022-07-29T05:35:29;15.00;;;11.02;;
60100;SDS011;45978;53.646;55.930;2022-07-29T05:36:31;21.27;;;11.60;;
60100;SDS011;45978;53.646;55.930;2022-07-29T05:37:33;14.35;;;10.95;;
60100;SDS011;45978;53.646;55.930;2022-07-29T05:38:36;19.60;;;11.68;;
60100;SDS011;45978;53.646;55.930;2022-07-29T05:39:37;17.30;;;11.52;;
60100;SDS011;45978;53.646;55.930;2022-07-29T05:40:42;17.88;;;11.75;;
60100;SDS011;45978;53.646;55.930;2022-07-29T05:41:43;25.08;;;10.75;;
60100;SDS011;45978;53.646;55.930;2022-07-29T05:42:44;18.98;;;11.95;;
60100;SDS011;45978;53.646;55.930;2022-07-29T05:43:46;17.33;;;11.50;;
60100;SDS011;45978;53.646;55.930;2022-07-29T05:44:47;17.20;;;10.80;;
60100;SDS011;45978;53.646;55.930;2022-07-29T05:45:48;16.55;;;10.75;;
60100;SDS011;45978;53.646;55.930;2022-07-29T05:46:53;24.30;;;11.70;;
60100;SDS011;45978;53.646;55.930;2022-07-29T05:47:55;18.15;;;10.85;;
60100;SDS011;45978;53.646;55.930;2022-07-29T05:48:57;16.35;;;10.18;;
60100;SDS011;45978;53.646;55.930;2022-07-29T05:49:58;19.30;;;10.73;;
60100;SDS011;45978;53.646;55.930;2022-07-29T05:51:00;21.17;;;11.10;;
60100;SDS011;45978;53.646;55.930;2022-07-29T05:52:01;24.85;;;11.90;;
60100;SDS011;45978;53.646;55.930;2022-07-29T05:53:03;19.83;;;10.90;;
60100;SDS011;45978;53.646;55.930;2022-07-29T05:54:06;22.23;;;11.23;;
60100;SDS011;45978;53.646;55.930;2022-07-29T05:55:07;25.90;;;12.05;;
60100;SDS011;45978;53.646;55.930;2022-07-29T05:56:09;21.13;;;10.95;;
60100;SDS011;45978;53.646;55.930;2022-07-29T05:57:20;13.88;;;11.30;;
60100;SDS011;45978;53.646;55.930;2022-07-29T05:58:23;25.17;;;11.82;;
60100;SDS011;45978;53.646;55.930;2022-07-29T05:59:24;29.30;;;11.90;;
60100;SDS011;45978;53.646;55.930;2022-07-29T06:00:26;19.38;;;13.48;;
60100;SDS011;45978;53.646;55.930;2022-07-29T06:01:27;28.33;;;11.40;;
60100;SDS011;45978;53.646;55.930;2022-07-29T06:02:29;16.52;;;11.70;;
60100;SDS011;45978;53.646;55.930;2022-07-29T06:03:30;16.30;;;11.15;;
60100;SDS011;45978;53.646;55.930;2022-07-29T06:04:32;18.00;;;11.38;;
60100;SDS011;45978;53.646;55.930;2022-07-29T06:05:34;14.55;;;11.15;;
60100;SDS011;45978;53.646;55.930;2022-07-29T06:06:38;15.77;;;11.18;;
60100;SDS011;45978;53.646;55.930;2022-07-29T06:07:40;19.50;;;11.95;;
60100;SDS011;45978;53.646;55.930;2022-07-29T06:08:41;23.73;;;12.27;;
60100;SDS011;45978;53.646;55.930;2022-07-29T06:09:43;28.95;;;12.57;;
60100;SDS011;45978;53.646;55.930;2022-07-29T06:10:47;19.73;;;11.95;;
60100;SDS011;45978;53.646;55.930;2022-07-29T06:11:48;22.10;;;12.45;;
60100;SDS011;45978;53.646;55.930;2022-07-29T06:12:50;32.17;;;13.38;;
60100;SDS011;45978;53.646;55.930;2022-07-29T06:13:51;25.33;;;12.05;;
60100;SDS011;45978;53.646;55.930;2022-07-29T06:14:52;13.25;;;11.15;;
60100;SDS011;45978;53.646;55.930;2022-07-29T06:15:57;23.27;;;12.63;;
60100;SDS011;45978;53.646;55.930;2022-07-29T06:17:00;22.25;;;12.60;;
60100;SDS011;45978;53.646;55.930;2022-07-29T06:18:01;17.88;;;12.13;;
60100;SDS011;45978;53.646;55.930;2022-07-29T06:19:08;26.25;;;13.07;;
60100;SDS011;45978;53.646;55.930;2022-07-29T06:20:09;20.98;;;12.15;;